LZPPLKMT

Guest
Details From LZPP - PIESTANY
To LKMT - Ostrava Mosnov
Flight Number -
Tags generated
Created
Modified
Stats Distance 67 nm / 124 km
Max Altitude 5,800 ft / 1,768 m
Waypoints 3
Social Downloads 0
Likes 0
Share VATSIM

Download

Looking for another format? Having issues loading an existing format? Contact us
Advertisement - Login to hide

Notes

Basic altitude profile: - Ascent Rate: 1100ft/min - Ascent Speed: 130kts - Cruise Altitude: 10000ft - Cruise Speed: 160kts - Descent Rate: 1100ft/min - Descent Speed: 130kts Options: - Use NATs: yes - Use PACOTS: yes - Use low airways: yes - Use high airways: no

Route

LZPP MAKAL LKMT

ID Type Via Altitude Latitude Longitude Leg Dist Tot Dist Heading (true) Name
O LZPP APT - 0 ft / 0 m 48.62525˚ 17.82844˚ - 0 nm - PIESTANY
MAKAL FIX - 5,800 ft / 1,768 m 49.24601˚ 18.16572˚ 39 nm 39 nm 20° / 20° -
O LKMT APT - 0 ft / 0 m 49.69622˚ 18.11085˚ 27 nm 66 nm 355° / 355° Ostrava Mosnov

Altitude Profile

Advertisement - Login to hide

LZPP

Details ICAO LZPP (PZY)
Name PIESTANY
Region Slovakia
Timezone Europe/Bratislava (UTC+1.0)
Stats Elevation 545 ft / 166 m (AMSL)
Location 48.625246° 17.828443°
Runways 1
Magnetic Variation 4.585° E

METAR

LZPP 141300Z 21008KT 9999 SCT013 BKN100 04/02 Q1003

Decode

TAF

Not found

Departure Runways

ID Width Length Bearing (true) Bearing (mag) Surface Threshold Offset Overrun Length
01 98 ft / 30 m 6,560 ft / 1,999 m 13.71° 9.13° Asphalt 0 ft / 0 m 0 ft / 0 m
19 98 ft / 30 m 6,560 ft / 1,999 m 193.72° 189.14° Asphalt 0 ft / 0 m 0 ft / 0 m

LKMT

Details ICAO LKMT (OSR)
Name Ostrava Mosnov
Region Czech Republic
Timezone Europe/Prague (UTC+1.0)
Stats Elevation 843 ft / 257 m (AMSL)
Location 49.696217° 18.110855°
Runways 1
Magnetic Variation 4.763° E

METAR

LKMT 141300Z 21018KT 9999 BKN032 06/M00 Q0999 NOSIG

Decode

TAF

Not found

Destination Runways

ID Width Length Bearing (true) Bearing (mag) Surface Threshold Offset Overrun Length
04 207 ft / 63 m 11,532 ft / 3,515 m 46.29° 41.53° Concrete 0 ft / 0 m 52 ft / 16 m
22 207 ft / 63 m 11,532 ft / 3,515 m 226.31° 221.55° Concrete 0 ft / 0 m 49 ft / 15 m

Approach Navaids

Runway Type Ident Frequency Range Bearing (true) Bearing (mag) Slope Elevation
22 Localiser OSV 110.95 MHz 18 nm / 33 km 226.26° 221.50° - 807 ft / 246 m (AMSL)
22 Glidescope OSV 110.95 MHz 10 nm / 19 km 226.30° 221.54° 3.00° 807 ft / 246 m (AMSL)
22 DME OSV 110.95 MHz 18 nm / 33 km - - - 824 ft / 251 m (AMSL)

Popular Alternatives